Terminal Aerodrome Forecast
Issued by NWS Bismarck, ND

Home | Current Version | Previous Version | Text Only | Print | Product List | Glossary Off
Versions: 1 2 3 4 5 6 7 8 9 10 11 12 13 14

000
FTUS43 KBIS 210525
TAFISN
TAF
KISN 210525Z 2106/2206 16005KT P6SM BKN120
     FM211300 30004KT P6SM BKN200
     FM211600 34009KT P6SM FEW250
     FM220400 36005KT P6SM FEW200=

USA.gov is the U.S. government's official web portal to all federal, state and local government web resources and services.